Private Wetterstation Heckinghausen
Wetterdaten: aktuell Samstag, 22.10.2016 22:39
Datum Zeit Temp. A. Feuchte A. Luftdruck Regen Wind Richtung Richtung Taupunkt Windchill Windben
22.10.2016 22:39 6,3 C 95 % 1014,9 hPa 0,0 l/m 0,0 km/h (0 Bft) SO 125 5,6 C 6,3 C 0,0 km/h (0 Bft)
22.10.2016 21:39 6,5 C 95 % 1015,0 hPa 0,0 l/m 0,0 km/h (0 Bft) SO 126 5,8 C 6,5 C 0,0 km/h (0 Bft)
22.10.2016 20:39 6,8 C 94 % 1015,0 hPa 0,0 l/m 0,0 km/h (0 Bft) SO 124 5,9 C 6,8 C 0,0 km/h (0 Bft)
22.10.2016 19:39 6,9 C 93 % 1014,8 hPa 0,0 l/m 0,0 km/h (0 Bft) SO 125 5,8 C 6,9 C 0,0 km/h (0 Bft)
22.10.2016 18:39 6,9 C 93 % 1014,7 hPa 0,0 l/m 0,0 km/h (0 Bft) O-SO 109 5,8 C 6,9 C 0,0 km/h (0 Bft)
22.10.2016 17:39 7,2 C 92 % 1014,4 hPa 0,0 l/m 0,0 km/h (0 Bft) O 98 6,0 C 7,2 C 0,0 km/h (0 Bft)
22.10.2016 16:39 7,4 C 91 % 1014,2 hPa 0,0 l/m 0,0 km/h (0 Bft) O 100 6,0 C 7,4 C 0,0 km/h (0 Bft)
22.10.2016 15:39 7,6 C 91 % 1014,1 hPa 0,0 l/m 0,0 km/h (0 Bft) O-SO 104 6,2 C 7,6 C 0,0 km/h (0 Bft)
22.10.2016 14:39 7,6 C 92 % 1014,0 hPa 0,0 l/m 0,1 km/h (0 Bft) SO 129 6,4 C 7,6 C 3,2 km/h (1 Bft)
22.10.2016 13:39 7,4 C 93 % 1014,0 hPa 0,0 l/m 0,0 km/h (0 Bft) O-SO 102 6,3 C 7,4 C 0,0 km/h (0 Bft)
22.10.2016 12:39 7,5 C 94 % 1013,9 hPa 0,0 l/m 0,0 km/h (0 Bft) O-SO 110 6,6 C 7,5 C 0,0 km/h (0 Bft)
22.10.2016 11:39 7,4 C 96 % 1013,7 hPa 0,0 l/m 0,6 km/h (0 Bft) O-SO 113 6,8 C 7,4 C 3,2 km/h (1 Bft)
22.10.2016 10:39 7,2 C 98 % 1013,4 hPa 0,0 l/m 0,0 km/h (0 Bft) O-SO 111 6,9 C 7,2 C 0,0 km/h (0 Bft)
22.10.2016 09:39 6,7 C 98 % 1013,3 hPa 0,0 l/m 0,0 km/h (0 Bft) O-SO 110 6,4 C 6,7 C 0,0 km/h (0 Bft)
22.10.2016 08:39 7,1 C 98 % 1012,8 hPa 0,0 l/m 0,0 km/h (0 Bft) W-NW 283 6,8 C 7,1 C 0,0 km/h (0 Bft)
22.10.2016 07:39 7,2 C 98 % 1012,4 hPa 0,0 l/m 0,0 km/h (0 Bft) W 273 6,9 C 7,2 C 0,0 km/h (0 Bft)
22.10.2016 06:39 7,3 C 98 % 1012,2 hPa 0,0 l/m 0,0 km/h (0 Bft) W-SW 243 7,0 C 7,3 C 0,0 km/h (0 Bft)
22.10.2016 05:39 7,4 C 98 % 1012,1 hPa 0,0 l/m 0,0 km/h (0 Bft) W-NW 288 7,1 C 7,4 C 0,0 km/h (0 Bft)
22.10.2016 04:39 7,4 C 98 % 1012,1 hPa 0,0 l/m 0,0 km/h (0 Bft) SW 229 7,1 C 7,4 C 0,0 km/h (0 Bft)
22.10.2016 03:39 7,4 C 98 % 1012,4 hPa 0,0 l/m 0,0 km/h (0 Bft) W 269 7,1 C 7,4 C 0,0 km/h (0 Bft)
22.10.2016 02:39 7,4 C 98 % 1012,7 hPa 0,0 l/m 0,0 km/h (0 Bft) N 357 7,1 C 7,4 C 0,0 km/h (0 Bft)
22.10.2016 01:39 7,3 C 98 % 1012,8 hPa 0,0 l/m 0,0 km/h (0 Bft) W 277 7,0 C 7,3 C 0,0 km/h (0 Bft)
22.10.2016 00:39 7,1 C 97 % 1013,1 hPa 0,0 l/m 0,0 km/h (0 Bft) W-NW 290 6,7 C 7,1 C 0,0 km/h (0 Bft)
22.10.2016 00:00 6,8 C 97 % 1013,3 hPa 0,0 l/m 0,0 km/h (0 Bft) NW 304 6,4 C 6,8 C 0,0 km/h (0 Bft)
_ Min-Zeit 22:06 15:54 05:03 - 00:00 - - 22:06 22:06 00:00
Minimum _ 6,3 C 90 % 1012,0 hPa - 0,0 km/h (0 Bft) - - 5,6 C 6,3 C 0,0 km/h (0 Bft)
_ Max-Zeit 14:15 00:51 21:57 00:00 13:03 - - 05:06 14:15 03:45
Maximum _ 7,8 C 98 % 1015,1 hPa 0,0 l/m 1,1 km/h
O-SO (1 Bft)
- - 7,2 C 7,8 C 3,2 km/h
W-NW (1 Bft)
Durchschnitt _ 7,2 C 95 % 1013,5 hPa #0,0 l/m 0,0 km/h (0 Bft) O-SO - 6,5 C 7,2 C 0,3 km/h (0 Bft)